Time;durP1;ratioP1;P1;durP2;ratioP2;P2;SDS_P1;SDS_P2;PMS_P1;PMS_P2;Temp;Humidity;BMP_temperature;BMP_pressure;BME280_temperature;BME280_humidity;BME280_pressure;Samples;Min_cycle;Max_cycle;Signal;HPM_P1;HPM_P2
2022/12/11 00:01:12;;;;;;;18.10;16.20;;;;;;;;;;5080462;28;20467;-87
2022/12/11 00:03:39;;;;;;;17.58;15.80;;;;;;;;;;5082166;28;20426;-87
2022/12/11 00:06:06;;;;;;;18.08;16.27;;;;;;;;;;5082446;28;20463;-86
2022/12/11 00:08:33;;;;;;;18.65;15.93;;;;;;;;;;5063600;28;20730;-86
2022/12/11 00:10:59;;;;;;;16.20;14.60;;;;;;;;;;5080218;28;20387;-87
2022/12/11 00:13:24;;;;;;;16.00;14.38;;;;;;;;;;5081782;28;20443;-86
2022/12/11 00:15:50;;;;;;;16.77;15.18;;;;;;;;;;5081495;28;20894;-87
2022/12/11 00:18:16;;;;;;;16.33;14.63;;;;;;;;;;5064205;28;20394;-86
2022/12/11 00:20:42;;;;;;;16.40;14.70;;;;;;;;;;5080886;28;20409;-87
2022/12/11 00:23:09;;;;;;;16.17;14.48;;;;;;;;;;5079984;28;20381;-86
2022/12/11 00:25:40;;;;;;;16.50;14.82;;;;;;;;;;5079309;28;20430;-87
2022/12/11 00:28:06;;;;;;;15.48;13.98;;;;;;;;;;5079644;28;20716;-87
2022/12/11 00:30:32;;;;;;;15.43;13.93;;;;;;;;;;5082051;28;20911;-87
2022/12/11 00:32:58;;;;;;;15.00;13.57;;;;;;;;;;5079429;28;20394;-86
2022/12/11 00:35:23;;;;;;;16.42;14.68;;;;;;;;;;5081684;28;20401;-86
2022/12/11 00:37:49;;;;;;;16.55;14.73;;;;;;;;;;5077524;28;20483;-86
2022/12/11 00:40:15;;;;;;;16.20;14.50;;;;;;;;;;5075999;28;20407;-87
2022/12/11 00:42:41;;;;;;;16.80;15.02;;;;;;;;;;5077658;28;20389;-87
2022/12/11 00:45:08;;;;;;;15.47;13.97;;;;;;;;;;5077463;28;20366;-86
2022/12/11 00:47:34;;;;;;;16.50;14.70;;;;;;;;;;5082260;28;20832;-87
2022/12/11 00:50:01;;;;;;;15.15;13.65;;;;;;;;;;5079997;28;20481;-88
2022/12/11 00:52:27;;;;;;;14.33;13.03;;;;;;;;;;5080169;28;20378;-88
2022/12/11 00:54:53;;;;;;;15.70;14.20;;;;;;;;;;5096020;28;20372;-87
2022/12/11 00:57:19;;;;;;;14.25;12.93;;;;;;;;;;5101416;28;20906;-87
2022/12/11 00:59:45;;;;;;;15.10;13.70;;;;;;;;;;5092159;28;20424;-87
2022/12/11 01:02:13;;;;;;;14.82;13.43;;;;;;;;;;5091977;28;21359;-88
2022/12/11 01:04:39;;;;;;;14.63;13.23;;;;;;;;;;5092194;28;20385;-88
2022/12/11 01:07:05;;;;;;;15.23;13.82;;;;;;;;;;5092220;28;20435;-88
2022/12/11 01:12:15;;;;;;;14.25;12.95;;;;;;;;;;5078693;28;20870;-86
2022/12/11 01:14:41;;;;;;;15.15;13.57;;;;;;;;;;5078999;28;20382;-86
2022/12/11 01:17:07;;;;;;;14.15;12.85;;;;;;;;;;5092319;28;20457;-87
2022/12/11 01:19:33;;;;;;;14.40;13.07;;;;;;;;;;5092460;28;20501;-86
2022/12/11 01:21:59;;;;;;;15.02;13.63;;;;;;;;;;5092325;28;20416;-85
2022/12/11 01:24:25;;;;;;;14.40;13.00;;;;;;;;;;5089099;28;20411;-85
2022/12/11 01:26:51;;;;;;;14.48;13.07;;;;;;;;;;5075904;28;20478;-87
2022/12/11 01:29:17;;;;;;;14.38;12.98;;;;;;;;;;5073126;28;20917;-86
2022/12/11 01:31:43;;;;;;;13.10;11.82;;;;;;;;;;5072740;28;20392;-88
2022/12/11 01:34:09;;;;;;;13.77;12.45;;;;;;;;;;5074287;28;20728;-87
2022/12/11 01:36:38;;;;;;;12.52;11.43;;;;;;;;;;5053815;28;20903;-86
2022/12/11 01:39:04;;;;;;;12.88;11.75;;;;;;;;;;5081722;28;20413;-86
2022/12/11 01:41:30;;;;;;;13.27;12.15;;;;;;;;;;5078867;28;20831;-86
2022/12/11 01:44:23;;;;;;;12.85;11.75;;;;;;;;;;5091059;28;20475;-87
2022/12/11 01:46:49;;;;;;;12.70;11.60;;;;;;;;;;5082021;28;20444;-87
2022/12/11 01:49:17;;;;;;;12.55;11.45;;;;;;;;;;5089965;28;20380;-87
2022/12/11 01:51:49;;;;;;;12.88;11.63;;;;;;;;;;5090187;28;20386;-87
2022/12/11 01:54:17;;;;;;;12.73;11.52;;;;;;;;;;5089565;28;20382;-86
2022/12/11 01:56:44;;;;;;;12.07;10.98;;;;;;;;;;5089721;28;20865;-87
2022/12/11 01:59:10;;;;;;;12.43;11.23;;;;;;;;;;5090398;28;20882;-86
2022/12/11 02:01:42;;;;;;;12.52;11.43;;;;;;;;;;5091582;28;20393;-87
2022/12/11 02:04:09;;;;;;;13.00;11.80;;;;;;;;;;5091919;28;20394;-87
2022/12/11 02:06:40;;;;;;;13.68;12.30;;;;;;;;;;5095423;28;20381;-87
2022/12/11 02:09:08;;;;;;;12.77;11.57;;;;;;;;;;5095561;28;20384;-87
2022/12/11 02:11:52;;;;;;;13.20;11.98;;;;;;;;;;5095185;28;20892;-87
2022/12/11 02:14:51;;;;;;;12.88;11.68;;;;;;;;;;5095631;28;20433;-86
2022/12/11 02:17:21;;;;;;;12.48;11.27;;;;;;;;;;5050734;28;20390;-87
2022/12/11 02:20:10;;;;;;;12.68;11.48;;;;;;;;;;5094970;28;20484;-87
2022/12/11 02:22:48;;;;;;;12.52;11.43;;;;;;;;;;5084903;28;20382;-87
2022/12/11 02:25:17;;;;;;;13.30;12.10;;;;;;;;;;5095429;28;20871;-86
2022/12/11 02:27:58;;;;;;;12.60;11.40;;;;;;;;;;5095479;28;20374;-86
2022/12/11 02:30:25;;;;;;;13.00;11.80;;;;;;;;;;5094962;28;20491;-87
2022/12/11 02:32:50;;;;;;;12.38;11.27;;;;;;;;;;5086057;28;20394;-87
2022/12/11 02:35:19;;;;;;;12.88;11.65;;;;;;;;;;5084430;28;20720;-86
2022/12/11 02:37:47;;;;;;;12.77;11.57;;;;;;;;;;5081712;28;20881;-86
2022/12/11 02:40:15;;;;;;;12.57;11.48;;;;;;;;;;5081364;28;20417;-87
2022/12/11 02:42:42;;;;;;;12.17;11.10;;;;;;;;;;5085208;28;20389;-86
2022/12/11 02:45:09;;;;;;;12.98;11.77;;;;;;;;;;5094162;28;20389;-87
2022/12/11 02:47:35;;;;;;;13.48;12.18;;;;;;;;;;5094631;28;20382;-88
2022/12/11 02:50:03;;;;;;;12.90;11.80;;;;;;;;;;5094115;28;20522;-86
2022/12/11 02:52:30;;;;;;;14.05;12.70;;;;;;;;;;5076553;28;20803;-87
2022/12/11 02:54:58;;;;;;;12.90;11.70;;;;;;;;;;5076555;28;20398;-87
2022/12/11 02:57:37;;;;;;;12.00;10.90;;;;;;;;;;5094290;28;20473;-86
2022/12/11 03:00:05;;;;;;;12.38;11.30;;;;;;;;;;5094252;28;20461;-86
2022/12/11 03:02:31;;;;;;;12.20;11.10;;;;;;;;;;5094489;28;20762;-87
2022/12/11 03:04:58;;;;;;;12.30;11.20;;;;;;;;;;5094329;28;20470;-86
2022/12/11 03:07:26;;;;;;;13.57;12.32;;;;;;;;;;5094643;28;20383;-87
2022/12/11 03:09:52;;;;;;;14.25;12.95;;;;;;;;;;5094366;28;20439;-88
2022/12/11 03:12:20;;;;;;;12.60;11.48;;;;;;;;;;5099566;28;20378;-87
2022/12/11 03:14:47;;;;;;;12.40;11.30;;;;;;;;;;5079678;28;20397;-86
2022/12/11 03:17:21;;;;;;;12.13;10.93;;;;;;;;;;5081599;28;20393;-86
2022/12/11 03:19:52;;;;;;;11.18;10.13;;;;;;;;;;5079225;28;20412;-87
2022/12/11 03:22:21;;;;;;;11.48;10.48;;;;;;;;;;5092776;28;20413;-86
2022/12/11 03:24:50;;;;;;;12.10;11.00;;;;;;;;;;5090995;28;20374;-86
2022/12/11 03:27:22;;;;;;;12.23;11.13;;;;;;;;;;5093848;28;20409;-87
2022/12/11 03:30:02;;;;;;;12.18;11.13;;;;;;;;;;5093960;28;20385;-87
2022/12/11 03:32:30;;;;;;;11.85;10.82;;;;;;;;;;5094069;28;20370;-86
2022/12/11 03:35:02;;;;;;;12.52;11.43;;;;;;;;;;5094025;28;20887;-86
2022/12/11 03:37:31;;;;;;;12.32;11.20;;;;;;;;;;5093994;28;20384;-86
2022/12/11 03:39:59;;;;;;;11.80;10.70;;;;;;;;;;5093752;28;20441;-86
2022/12/11 03:42:26;;;;;;;11.80;10.68;;;;;;;;;;5093513;28;20394;-85
2022/12/11 03:44:54;;;;;;;12.27;11.13;;;;;;;;;;5093500;28;20370;-85
2022/12/11 03:47:22;;;;;;;12.40;11.20;;;;;;;;;;5093537;28;20424;-86
2022/12/11 03:49:48;;;;;;;11.98;10.88;;;;;;;;;;5093463;28;20386;-85
2022/12/11 03:52:15;;;;;;;12.40;11.27;;;;;;;;;;5092764;28;20465;-86
2022/12/11 03:54:42;;;;;;;11.90;10.70;;;;;;;;;;5074738;28;20924;-86
2022/12/11 03:57:09;;;;;;;11.88;10.88;;;;;;;;;;5092978;28;20393;-86
2022/12/11 03:59:35;;;;;;;12.18;10.98;;;;;;;;;;5093290;28;20410;-86
2022/12/11 04:02:09;;;;;;;11.43;10.43;;;;;;;;;;5093528;28;20389;-86
2022/12/11 04:04:35;;;;;;;11.40;10.40;;;;;;;;;;5093084;28;20434;-85
2022/12/11 04:07:01;;;;;;;11.55;10.45;;;;;;;;;;5074709;28;20386;-85
2022/12/11 04:09:27;;;;;;;12.30;11.20;;;;;;;;;;5092974;28;20873;-85
2022/12/11 04:11:53;;;;;;;12.05;10.95;;;;;;;;;;5092977;28;20390;-85
2022/12/11 04:17:04;;;;;;;11.60;10.52;;;;;;;;;;5093325;28;20458;-85
2022/12/11 04:25:01;;;;;;;11.73;10.70;;;;;;;;;;5093214;28;20731;-85
2022/12/11 04:30:13;;;;;;;12.63;11.52;;;;;;;;;;5092602;28;20735;-85
2022/12/11 04:32:39;;;;;;;21.38;19.05;;;;;;;;;;5092668;28;20912;-85
2022/12/11 04:35:06;;;;;;;18.90;17.10;;;;;;;;;;5092837;28;20378;-84
2022/12/11 04:37:32;;;;;;;11.63;10.63;;;;;;;;;;5092795;28;20886;-85
2022/12/11 04:39:58;;;;;;;11.82;10.77;;;;;;;;;;5074640;28;20449;-85
2022/12/11 04:42:24;;;;;;;11.65;10.55;;;;;;;;;;5092827;28;20404;-85
2022/12/11 04:44:50;;;;;;;11.70;10.60;;;;;;;;;;5092382;28;20839;-85
2022/12/11 04:47:16;;;;;;;11.43;10.43;;;;;;;;;;5092795;28;20382;-85
2022/12/11 04:49:42;;;;;;;11.82;10.73;;;;;;;;;;5074634;28;20451;-85
2022/12/11 04:52:08;;;;;;;11.40;10.20;;;;;;;;;;5092269;28;20374;-85
2022/12/11 04:54:34;;;;;;;12.52;11.23;;;;;;;;;;5092329;28;20894;-85
2022/12/11 04:57:00;;;;;;;11.38;10.38;;;;;;;;;;5092349;28;20378;-86
2022/12/11 04:59:26;;;;;;;12.20;11.10;;;;;;;;;;5087496;28;20417;-85
2022/12/11 05:01:52;;;;;;;11.82;10.73;;;;;;;;;;5073628;28;20402;-85
2022/12/11 05:04:18;;;;;;;11.95;10.85;;;;;;;;;;5091587;28;21163;-85
2022/12/11 05:06:44;;;;;;;11.60;10.55;;;;;;;;;;5092009;28;20470;-85
2022/12/11 05:09:11;;;;;;;12.38;11.18;;;;;;;;;;5102115;28;20747;-85
2022/12/11 05:11:37;;;;;;;11.68;10.68;;;;;;;;;;5092512;28;20825;-84
2022/12/11 05:14:03;;;;;;;12.20;11.10;;;;;;;;;;5098646;28;20898;-85
2022/12/11 05:16:29;;;;;;;12.25;11.05;;;;;;;;;;5087751;28;20868;-85
2022/12/11 05:18:55;;;;;;;12.13;10.93;;;;;;;;;;5077689;28;20371;-85
2022/12/11 05:21:21;;;;;;;11.57;10.57;;;;;;;;;;5083672;28;20475;-84
2022/12/11 05:23:47;;;;;;;11.15;10.15;;;;;;;;;;5090638;28;20382;-85
2022/12/11 05:26:15;;;;;;;11.93;10.82;;;;;;;;;;5087310;28;20383;-85
2022/12/11 05:28:42;;;;;;;12.43;11.13;;;;;;;;;;5092062;28;20920;-85
2022/12/11 05:31:11;;;;;;;11.45;10.43;;;;;;;;;;5087899;28;20853;-85
2022/12/11 05:33:37;;;;;;;11.47;10.37;;;;;;;;;;5073679;28;20885;-85
2022/12/11 05:36:03;;;;;;;12.32;11.23;;;;;;;;;;5091853;28;20409;-85
2022/12/11 05:38:30;;;;;;;11.73;10.68;;;;;;;;;;5092146;28;20386;-85
2022/12/11 05:40:57;;;;;;;11.73;10.68;;;;;;;;;;5091036;28;20413;-84
2022/12/11 05:43:23;;;;;;;11.50;10.40;;;;;;;;;;5096204;28;20386;-84
2022/12/11 05:45:49;;;;;;;11.55;10.45;;;;;;;;;;5095634;28;20389;-84
2022/12/11 05:48:15;;;;;;;11.40;10.30;;;;;;;;;;5077492;28;20394;-84
2022/12/11 05:50:41;;;;;;;11.85;10.75;;;;;;;;;;5095729;28;20427;-84
2022/12/11 05:53:07;;;;;;;11.70;10.60;;;;;;;;;;5095375;28;20378;-84
2022/12/11 05:55:36;;;;;;;12.38;11.20;;;;;;;;;;5077313;28;20389;-84
2022/12/11 05:58:02;;;;;;;12.05;10.88;;;;;;;;;;5095574;28;20386;-84
2022/12/11 06:00:28;;;;;;;12.27;11.17;;;;;;;;;;5095784;28;20505;-84
2022/12/11 06:02:54;;;;;;;11.82;10.73;;;;;;;;;;5093386;28;20469;-84
2022/12/11 06:05:20;;;;;;;11.60;10.40;;;;;;;;;;5094299;28;20394;-84
2022/12/11 06:07:45;;;;;;;11.75;10.65;;;;;;;;;;5094996;28;20385;-84
2022/12/11 06:10:11;;;;;;;12.03;10.83;;;;;;;;;;5077481;28;20440;-84
2022/12/11 06:12:37;;;;;;;11.90;10.80;;;;;;;;;;5095559;28;20796;-83
2022/12/11 06:15:04;;;;;;;11.07;10.07;;;;;;;;;;5095569;28;20468;-83
2022/12/11 06:17:30;;;;;;;12.10;10.90;;;;;;;;;;5094911;28;20424;-83
2022/12/11 06:19:56;;;;;;;12.30;11.00;;;;;;;;;;5076707;28;20412;-83
2022/12/11 06:22:22;;;;;;;11.88;10.77;;;;;;;;;;5095169;28;20712;-83
2022/12/11 06:24:48;;;;;;;11.45;10.45;;;;;;;;;;5085257;28;20387;-83
2022/12/11 06:27:14;;;;;;;12.75;11.45;;;;;;;;;;5093444;28;20378;-83
2022/12/11 06:29:40;;;;;;;12.52;11.43;;;;;;;;;;5095004;28;20370;-84
2022/12/11 06:32:06;;;;;;;11.93;10.80;;;;;;;;;;5092612;28;20421;-83
2022/12/11 06:34:32;;;;;;;12.10;10.95;;;;;;;;;;5083161;28;20417;-83
2022/12/11 06:36:58;;;;;;;12.13;10.93;;;;;;;;;;5093072;28;20446;-83
2022/12/11 06:39:24;;;;;;;12.43;11.30;;;;;;;;;;5094907;28;20608;-83
2022/12/11 06:41:50;;;;;;;12.20;11.10;;;;;;;;;;5094246;28;20481;-83
2022/12/11 06:44:16;;;;;;;12.30;11.00;;;;;;;;;;5094887;28;20390;-83
2022/12/11 06:46:42;;;;;;;13.30;12.00;;;;;;;;;;5091996;28;20874;-83
2022/12/11 06:49:08;;;;;;;12.18;11.05;;;;;;;;;;5094391;28;20481;-83
2022/12/11 06:51:34;;;;;;;12.90;11.60;;;;;;;;;;5091620;28;20382;-83
2022/12/11 06:54:00;;;;;;;11.88;10.80;;;;;;;;;;5072026;28;20864;-83
2022/12/11 06:56:26;;;;;;;12.95;11.65;;;;;;;;;;5059787;28;20940;-83
2022/12/11 06:58:52;;;;;;;13.10;11.90;;;;;;;;;;5074057;28;20392;-83
2022/12/11 07:01:22;;;;;;;21.88;17.63;;;;;;;;;;5088265;28;20475;-83
2022/12/11 07:03:48;;;;;;;23.30;19.05;;;;;;;;;;5092501;28;20427;-83
2022/12/11 07:06:15;;;;;;;23.17;17.15;;;;;;;;;;5087564;28;20370;-83
2022/12/11 07:08:42;;;;;;;15.63;13.98;;;;;;;;;;5096809;28;20437;-83
2022/12/11 07:11:09;;;;;;;10.55;9.60;;;;;;;;;;5102216;28;20382;-83
2022/12/11 07:13:35;;;;;;;11.35;10.25;;;;;;;;;;5108086;28;20392;-84
2022/12/11 07:16:03;;;;;;;13.07;11.38;;;;;;;;;;5103907;28;20386;-83
2022/12/11 07:18:29;;;;;;;14.85;13.27;;;;;;;;;;5079368;28;20384;-83
2022/12/11 07:20:58;;;;;;;13.85;12.55;;;;;;;;;;5093041;28;20404;-83
2022/12/11 07:23:24;;;;;;;13.38;12.07;;;;;;;;;;5083196;28;20409;-83
2022/12/11 07:25:50;;;;;;;12.35;11.15;;;;;;;;;;5090046;28;20705;-85
2022/12/11 07:28:16;;;;;;;11.68;10.65;;;;;;;;;;5093367;28;20389;-85
2022/12/11 07:30:42;;;;;;;11.75;10.57;;;;;;;;;;5071341;28;20918;-84
2022/12/11 07:33:08;;;;;;;11.77;10.68;;;;;;;;;;5066334;28;20500;-84
2022/12/11 07:35:34;;;;;;;11.35;10.27;;;;;;;;;;5093456;28;20740;-83
2022/12/11 07:38:00;;;;;;;11.25;10.25;;;;;;;;;;5093987;28;20386;-84
2022/12/11 07:40:26;;;;;;;11.15;10.05;;;;;;;;;;5081233;28;20423;-83
2022/12/11 07:42:52;;;;;;;12.25;11.15;;;;;;;;;;5102077;28;20392;-83
2022/12/11 07:45:19;;;;;;;11.97;10.87;;;;;;;;;;5085329;28;20404;-83
2022/12/11 07:47:45;;;;;;;12.33;11.13;;;;;;;;;;5082442;28;20405;-82
2022/12/11 07:50:11;;;;;;;14.90;13.30;;;;;;;;;;5073270;28;20383;-82
2022/12/11 07:52:36;;;;;;;16.27;14.40;;;;;;;;;;5073487;28;20457;-83
2022/12/11 07:55:03;;;;;;;18.00;15.77;;;;;;;;;;5075166;28;20411;-84
2022/12/11 07:57:29;;;;;;;15.70;14.07;;;;;;;;;;5070936;28;20422;-83
2022/12/11 07:59:55;;;;;;;13.53;12.13;;;;;;;;;;5079976;28;20445;-83
2022/12/11 08:02:21;;;;;;;12.40;11.20;;;;;;;;;;5084788;28;20398;-83
2022/12/11 08:04:47;;;;;;;12.35;11.15;;;;;;;;;;5089663;28;20378;-84
2022/12/11 08:07:13;;;;;;;13.40;12.00;;;;;;;;;;5092629;28;20389;-84
2022/12/11 08:09:39;;;;;;;13.20;11.98;;;;;;;;;;5093049;28;20382;-82
2022/12/11 08:12:05;;;;;;;13.52;12.15;;;;;;;;;;5092888;28;20378;-82
2022/12/11 08:14:31;;;;;;;13.10;11.80;;;;;;;;;;5092558;28;20435;-82
2022/12/11 08:16:58;;;;;;;13.35;12.10;;;;;;;;;;5092412;28;20405;-82
2022/12/11 08:19:25;;;;;;;13.40;12.00;;;;;;;;;;5092455;28;20382;-82
2022/12/11 08:21:51;;;;;;;12.98;11.68;;;;;;;;;;5092479;28;20385;-83
2022/12/11 08:24:19;;;;;;;13.13;11.82;;;;;;;;;;5074052;28;20386;-83
2022/12/11 08:26:45;;;;;;;13.10;11.68;;;;;;;;;;5083572;28;20433;-83
2022/12/11 08:29:11;;;;;;;14.27;12.87;;;;;;;;;;5091149;28;20901;-82
2022/12/11 08:31:38;;;;;;;16.90;14.88;;;;;;;;;;5090141;28;20418;-86
2022/12/11 08:34:04;;;;;;;15.80;14.20;;;;;;;;;;5084335;28;20370;-87
2022/12/11 08:36:31;;;;;;;15.20;13.63;;;;;;;;;;5083395;28;20932;-86
2022/12/11 08:38:57;;;;;;;17.75;15.95;;;;;;;;;;5088059;28;20374;-84
2022/12/11 08:41:24;;;;;;;16.45;14.77;;;;;;;;;;5073983;28;20801;-86
2022/12/11 08:43:53;;;;;;;24.05;20.85;;;;;;;;;;5092263;28;20724;-85
2022/12/11 08:46:20;;;;;;;22.10;19.23;;;;;;;;;;5073191;28;20762;-85
2022/12/11 08:48:46;;;;;;;19.63;17.63;;;;;;;;;;5085573;28;20900;-86
2022/12/11 08:51:13;;;;;;;17.70;16.00;;;;;;;;;;5091898;28;20382;-85
2022/12/11 08:53:40;;;;;;;16.65;14.95;;;;;;;;;;5092542;28;20960;-86
2022/12/11 08:56:10;;;;;;;17.52;15.63;;;;;;;;;;5092277;28;20382;-85
2022/12/11 08:58:36;;;;;;;17.83;15.40;;;;;;;;;;5092027;28;20727;-85
2022/12/11 09:01:12;;;;;;;16.95;14.68;;;;;;;;;;5077349;28;20935;-85
2022/12/11 09:03:39;;;;;;;17.20;15.20;;;;;;;;;;5078571;28;20397;-85
2022/12/11 09:06:06;;;;;;;16.67;14.07;;;;;;;;;;5091457;28;20374;-84
2022/12/11 09:08:32;;;;;;;17.95;15.65;;;;;;;;;;5090562;28;20374;-85
2022/12/11 09:11:18;;;;;;;19.40;15.10;;;;;;;;;;5106150;28;20403;-85
2022/12/11 09:13:44;;;;;;;17.03;15.07;;;;;;;;;;5090863;28;20424;-84
2022/12/11 09:16:12;;;;;;;15.40;13.85;;;;;;;;;;5085646;28;20411;-85
2022/12/11 09:18:39;;;;;;;15.10;13.52;;;;;;;;;;5089686;28;20397;-84
2022/12/11 09:21:06;;;;;;;14.90;13.40;;;;;;;;;;5086637;28;20419;-84
2022/12/11 09:23:33;;;;;;;15.10;13.60;;;;;;;;;;5076985;28;20386;-83
2022/12/11 09:25:59;;;;;;;14.87;13.37;;;;;;;;;;5092509;28;20386;-84
2022/12/11 09:28:25;;;;;;;16.38;14.68;;;;;;;;;;5092984;28;20398;-83
2022/12/11 09:30:51;;;;;;;17.35;15.45;;;;;;;;;;5080992;28;20374;-82
2022/12/11 09:33:17;;;;;;;22.03;18.00;;;;;;;;;;5097034;28;20483;-83
2022/12/11 09:35:43;;;;;;;20.92;18.27;;;;;;;;;;5095477;28;20382;-84
2022/12/11 09:38:09;;;;;;;20.83;17.95;;;;;;;;;;5089265;28;20911;-84
2022/12/11 09:40:40;;;;;;;18.33;16.40;;;;;;;;;;5092724;28;20502;-84
2022/12/11 09:43:11;;;;;;;23.13;18.17;;;;;;;;;;5076431;28;20433;-84
2022/12/11 09:45:37;;;;;;;18.70;16.48;;;;;;;;;;5085888;28;20412;-88
2022/12/11 09:48:04;;;;;;;22.48;17.83;;;;;;;;;;5071185;28;20863;-89
2022/12/11 09:50:33;;;;;;;20.63;17.73;;;;;;;;;;5085961;28;20384;-84
2022/12/11 09:53:11;;;;;;;19.52;16.83;;;;;;;;;;5059071;28;20812;-84
2022/12/11 09:55:49;;;;;;;18.70;16.73;;;;;;;;;;5091321;28;20416;-83
2022/12/11 09:58:34;;;;;;;18.00;16.08;;;;;;;;;;5092860;28;20451;-83
2022/12/11 10:01:11;;;;;;;18.13;16.23;;;;;;;;;;5095079;28;20416;-83
2022/12/11 10:03:47;;;;;;;17.23;15.53;;;;;;;;;;5090899;28;20384;-83
2022/12/11 10:06:28;;;;;;;17.75;15.85;;;;;;;;;;5081364;28;20861;-83
2022/12/11 10:09:00;;;;;;;18.98;16.77;;;;;;;;;;5078936;28;20729;-82
2022/12/11 10:11:38;;;;;;;17.58;15.35;;;;;;;;;;5074066;28;20383;-84
2022/12/11 10:14:22;;;;;;;18.15;16.05;;;;;;;;;;5073005;28;21245;-84
2022/12/11 10:16:52;;;;;;;18.70;15.40;;;;;;;;;;5075218;28;20387;-84
2022/12/11 10:19:23;;;;;;;17.73;15.93;;;;;;;;;;5073170;28;20387;-85
2022/12/11 10:21:50;;;;;;;18.00;16.10;;;;;;;;;;5072372;28;20399;-85
2022/12/11 10:24:36;;;;;;;18.77;16.17;;;;;;;;;;5071419;28;20410;-85
2022/12/11 10:27:13;;;;;;;18.10;16.00;;;;;;;;;;5076449;28;20382;-86
2022/12/11 10:29:39;;;;;;;16.25;14.55;;;;;;;;;;5069676;28;20388;-87
2022/12/11 10:32:07;;;;;;;16.88;15.10;;;;;;;;;;5087266;28;20382;-85
2022/12/11 10:34:35;;;;;;;17.13;15.32;;;;;;;;;;5083743;28;20380;-85
2022/12/11 10:37:01;;;;;;;17.13;15.43;;;;;;;;;;5073220;28;20885;-85
2022/12/11 10:39:27;;;;;;;19.25;15.95;;;;;;;;;;5080224;28;20531;-86
2022/12/11 10:41:54;;;;;;;18.63;16.13;;;;;;;;;;5072885;28;20753;-86
2022/12/11 10:44:28;;;;;;;17.50;15.37;;;;;;;;;;5075527;28;20393;-86
2022/12/11 10:47:02;;;;;;;16.58;14.88;;;;;;;;;;5071102;28;20384;-81
2022/12/11 10:49:29;;;;;;;17.07;15.30;;;;;;;;;;5077132;28;20413;-89
2022/12/11 10:51:56;;;;;;;17.65;15.80;;;;;;;;;;5076932;28;20495;-85
2022/12/11 10:54:28;;;;;;;18.92;15.70;;;;;;;;;;5055864;28;20477;-84
2022/12/11 10:56:54;;;;;;;16.63;14.93;;;;;;;;;;5073792;28;20384;-86
2022/12/11 10:59:32;;;;;;;18.07;16.07;;;;;;;;;;5080180;28;20384;-90
2022/12/11 11:01:58;;;;;;;16.67;14.93;;;;;;;;;;5080992;28;20384;-84
2022/12/11 11:04:36;;;;;;;16.63;14.97;;;;;;;;;;5073907;28;20444;-83
2022/12/11 11:07:03;;;;;;;16.67;14.88;;;;;;;;;;5071867;28;20387;-82
2022/12/11 11:09:33;;;;;;;17.85;15.98;;;;;;;;;;5068015;28;20393;-82
2022/12/11 11:11:59;;;;;;;17.70;15.90;;;;;;;;;;5090613;28;20431;-86
2022/12/11 11:14:25;;;;;;;17.70;14.88;;;;;;;;;;5087855;28;20383;-83
2022/12/11 11:16:52;;;;;;;16.27;14.57;;;;;;;;;;5078381;28;20435;-84
2022/12/11 11:19:20;;;;;;;15.40;13.80;;;;;;;;;;5093332;28;20371;-82
2022/12/11 11:21:48;;;;;;;16.70;14.97;;;;;;;;;;5090125;28;20959;-83
2022/12/11 11:24:23;;;;;;;16.33;14.63;;;;;;;;;;5089352;28;20822;-82
2022/12/11 11:26:49;;;;;;;15.95;14.25;;;;;;;;;;5091210;28;20382;-82
2022/12/11 11:29:24;;;;;;;16.42;14.73;;;;;;;;;;5082250;28;20382;-81
2022/12/11 11:31:50;;;;;;;17.80;15.63;;;;;;;;;;5093191;28;20374;-82
2022/12/11 11:34:20;;;;;;;17.70;15.80;;;;;;;;;;5093409;28;20713;-81
2022/12/11 11:36:55;;;;;;;18.17;15.02;;;;;;;;;;5092113;28;20425;-82
2022/12/11 11:39:27;;;;;;;19.77;16.35;;;;;;;;;;5078068;28;20374;-86
2022/12/11 11:42:06;;;;;;;18.83;16.10;;;;;;;;;;5090615;28;20382;-84
2022/12/11 11:44:58;;;;;;;17.60;15.15;;;;;;;;;;5077272;28;20891;-85
2022/12/11 11:47:30;;;;;;;17.92;15.27;;;;;;;;;;5068732;28;20399;-86
2022/12/11 11:50:16;;;;;;;17.60;15.10;;;;;;;;;;5090573;28;20561;-85
2022/12/11 11:52:54;;;;;;;17.88;14.70;;;;;;;;;;5089586;28;20468;-86
2022/12/11 11:55:24;;;;;;;16.30;14.60;;;;;;;;;;5091202;28;20400;-86
2022/12/11 11:57:56;;;;;;;16.48;14.70;;;;;;;;;;5091461;28;20867;-86
2022/12/11 12:00:28;;;;;;;15.82;14.13;;;;;;;;;;5091394;28;20518;-88
2022/12/11 12:02:56;;;;;;;15.68;14.05;;;;;;;;;;5073279;28;20859;-85
2022/12/11 12:05:36;;;;;;;15.97;14.03;;;;;;;;;;5091568;28;20422;-87
2022/12/11 12:08:05;;;;;;;15.95;14.25;;;;;;;;;;5073103;28;20401;-86
2022/12/11 12:10:41;;;;;;;15.67;14.07;;;;;;;;;;5091548;28;20417;-86
2022/12/11 12:13:17;;;;;;;16.48;14.73;;;;;;;;;;5091367;28;20447;-85
2022/12/11 12:15:50;;;;;;;16.15;14.55;;;;;;;;;;5091503;28;20377;-86
2022/12/11 12:18:22;;;;;;;16.10;14.40;;;;;;;;;;5092327;28;20544;-86
2022/12/11 12:20:48;;;;;;;15.98;14.30;;;;;;;;;;5092351;28;20417;-86
2022/12/11 12:23:14;;;;;;;14.82;13.43;;;;;;;;;;5091840;28;20378;-86
2022/12/11 12:25:42;;;;;;;16.60;14.80;;;;;;;;;;5088987;28;20455;-88
2022/12/11 12:28:16;;;;;;;16.17;14.48;;;;;;;;;;5073043;28;20418;-89
2022/12/11 12:31:08;;;;;;;15.85;14.18;;;;;;;;;;5070548;28;20380;-85
2022/12/11 12:34:13;;;;;;;17.13;15.32;;;;;;;;;;5077021;28;20455;-87
2022/12/11 12:36:51;;;;;;;16.05;14.35;;;;;;;;;;5003915;28;20412;-87
2022/12/11 12:39:45;;;;;;;15.70;14.10;;;;;;;;;;4998929;28;20387;-86
2022/12/11 12:42:16;;;;;;;16.30;14.70;;;;;;;;;;5055050;28;20414;-83
2022/12/11 12:44:45;;;;;;;16.92;15.23;;;;;;;;;;5067590;28;20761;-88
2022/12/11 12:47:17;;;;;;;16.05;14.35;;;;;;;;;;5086606;28;20404;-85
2022/12/11 12:49:45;;;;;;;15.32;13.82;;;;;;;;;;5099309;28;20379;-86
2022/12/11 12:52:22;;;;;;;16.30;14.60;;;;;;;;;;5088959;28;20829;-86
2022/12/11 12:57:37;;;;;;;15.50;13.98;;;;;;;;;;5090499;28;20385;-85
2022/12/11 13:00:04;;;;;;;16.50;14.80;;;;;;;;;;5091767;28;20414;-86
2022/12/11 13:02:30;;;;;;;16.63;14.90;;;;;;;;;;5092351;28;20382;-86
2022/12/11 13:04:59;;;;;;;16.87;14.97;;;;;;;;;;5093031;28;20386;-86
2022/12/11 13:07:28;;;;;;;17.20;14.70;;;;;;;;;;5102581;28;20385;-86
2022/12/11 13:10:03;;;;;;;17.25;15.43;;;;;;;;;;5091707;28;20386;-85
2022/12/11 13:12:32;;;;;;;18.70;16.25;;;;;;;;;;5091905;28;20465;-85
2022/12/11 13:14:59;;;;;;;15.57;14.02;;;;;;;;;;5073605;28;20867;-86
2022/12/11 13:17:34;;;;;;;17.60;15.73;;;;;;;;;;5073957;28;20390;-86
2022/12/11 13:20:11;;;;;;;18.75;15.63;;;;;;;;;;5076919;28;20407;-85
2022/12/11 13:22:46;;;;;;;16.67;15.00;;;;;;;;;;5091542;28;20447;-86
2022/12/11 13:25:18;;;;;;;15.90;14.30;;;;;;;;;;5091546;28;20370;-85
2022/12/11 13:27:45;;;;;;;15.75;14.13;;;;;;;;;;5072101;28;20416;-85
2022/12/11 13:30:14;;;;;;;15.93;14.07;;;;;;;;;;5086613;28;20388;-85
2022/12/11 13:32:41;;;;;;;15.40;13.80;;;;;;;;;;5078696;28;20384;-85
2022/12/11 13:35:14;;;;;;;16.05;14.35;;;;;;;;;;5091719;28;20439;-85
2022/12/11 13:37:41;;;;;;;16.60;14.45;;;;;;;;;;5091831;28;20385;-86
2022/12/11 13:40:14;;;;;;;15.13;13.53;;;;;;;;;;5091398;28;20497;-85
2022/12/11 13:42:47;;;;;;;14.70;13.20;;;;;;;;;;5091823;28;20735;-85
2022/12/11 13:45:27;;;;;;;14.18;12.75;;;;;;;;;;5091993;28;20377;-83
2022/12/11 13:47:53;;;;;;;14.35;12.95;;;;;;;;;;5091456;28;20382;-85
2022/12/11 13:50:28;;;;;;;15.67;13.97;;;;;;;;;;5091541;28;20378;-85
2022/12/11 13:52:57;;;;;;;14.43;12.93;;;;;;;;;;5086096;28;20392;-85
2022/12/11 13:55:29;;;;;;;15.53;13.93;;;;;;;;;;5091557;28;20458;-84
2022/12/11 13:57:55;;;;;;;13.65;12.30;;;;;;;;;;5091516;28;20386;-85
2022/12/11 14:00:22;;;;;;;15.38;13.88;;;;;;;;;;5092085;28;20456;-85
2022/12/11 14:02:49;;;;;;;14.02;12.63;;;;;;;;;;5095404;28;20422;-85
2022/12/11 14:05:15;;;;;;;13.43;12.13;;;;;;;;;;5095648;28;20431;-88
2022/12/11 14:07:43;;;;;;;14.38;12.98;;;;;;;;;;5095300;28;20422;-87
2022/12/11 14:10:26;;;;;;;15.32;13.82;;;;;;;;;;5083707;28;20382;-83
2022/12/11 14:13:05;;;;;;;16.08;14.38;;;;;;;;;;5080032;28;20395;-83
2022/12/11 14:15:32;;;;;;;15.45;14.02;;;;;;;;;;5080474;28;20370;-83
2022/12/11 14:17:59;;;;;;;16.13;14.52;;;;;;;;;;5082066;28;20714;-83
2022/12/11 14:20:34;;;;;;;15.70;14.13;;;;;;;;;;5081185;28;20448;-83
2022/12/11 14:23:04;;;;;;;16.67;14.93;;;;;;;;;;5086200;28;20392;-84
2022/12/11 14:25:30;;;;;;;16.37;14.67;;;;;;;;;;5069415;28;20386;-84
2022/12/11 14:27:56;;;;;;;16.83;15.10;;;;;;;;;;5085742;28;20390;-85
2022/12/11 14:30:24;;;;;;;16.75;14.77;;;;;;;;;;5083256;28;20894;-80
2022/12/11 14:32:50;;;;;;;16.80;15.00;;;;;;;;;;5091835;28;20479;-82
2022/12/11 14:35:24;;;;;;;16.98;15.20;;;;;;;;;;5088810;28;20572;-82
2022/12/11 14:37:51;;;;;;;19.48;16.20;;;;;;;;;;5092856;28;20553;-82
2022/12/11 14:40:19;;;;;;;17.42;15.52;;;;;;;;;;5063855;28;20419;-82
2022/12/11 14:42:47;;;;;;;16.90;15.10;;;;;;;;;;5089799;28;20376;-83